createdAt,value
2022-10-23T00:01:45.279Z,14.80
2022-10-23T00:04:25.269Z,14.80
2022-10-23T00:06:53.206Z,14.80
2022-10-23T00:09:24.469Z,14.80
2022-10-23T00:11:53.345Z,14.80
2022-10-23T00:14:25.039Z,14.70
2022-10-23T00:16:53.042Z,14.70
2022-10-23T00:19:20.832Z,14.70
2022-10-23T00:21:48.971Z,14.60
2022-10-23T00:24:16.815Z,14.50
2022-10-23T00:26:44.789Z,14.40
2022-10-23T00:29:12.765Z,14.40
2022-10-23T00:31:40.660Z,14.30
2022-10-23T00:34:09.319Z,14.20
2022-10-23T00:36:37.567Z,14.20
2022-10-23T00:39:06.400Z,14.10
2022-10-23T00:41:35.155Z,14.10
2022-10-23T00:44:29.821Z,14.00
2022-10-23T00:46:59.345Z,14.00
2022-10-23T00:49:28.397Z,14.00
2022-10-23T00:52:01.239Z,14.00
2022-10-23T00:54:38.193Z,14.00
2022-10-23T00:57:13.705Z,14.00
2022-10-23T00:59:42.309Z,13.90
2022-10-23T01:02:10.511Z,13.90
2022-10-23T01:04:39.632Z,13.90
2022-10-23T01:07:15.272Z,13.90
2022-10-23T01:10:03.598Z,13.90
2022-10-23T01:13:11.159Z,13.90
2022-10-23T01:15:57.301Z,13.90
2022-10-23T01:19:12.336Z,13.90
2022-10-23T01:21:59.127Z,13.90
2022-10-23T01:25:03.155Z,13.90
2022-10-23T01:27:40.903Z,14.00
2022-10-23T01:30:16.079Z,14.00
2022-10-23T01:33:04.584Z,14.00
2022-10-23T01:36:00.272Z,14.00
2022-10-23T01:38:39.178Z,14.10
2022-10-23T01:41:46.554Z,14.00
2022-10-23T01:44:39.402Z,14.00
2022-10-23T01:47:10.798Z,14.00
2022-10-23T01:49:54.699Z,13.90
2022-10-23T01:52:23.516Z,13.80
2022-10-23T01:54:57.031Z,13.80
2022-10-23T01:57:28.361Z,13.80
2022-10-23T02:00:09.133Z,13.90
2022-10-23T02:02:53.704Z,13.90
2022-10-23T02:05:29.542Z,13.90
2022-10-23T02:08:00.720Z,13.90
2022-10-23T02:10:43.403Z,13.90
2022-10-23T02:13:48.662Z,13.90
2022-10-23T02:16:54.524Z,13.90
2022-10-23T02:19:38.776Z,14.00
2022-10-23T02:22:29.236Z,14.00
2022-10-23T02:25:12.817Z,14.00
2022-10-23T02:27:54.059Z,14.00
2022-10-23T02:30:25.635Z,13.90
2022-10-23T02:33:08.903Z,13.90
2022-10-23T02:35:36.819Z,13.80
2022-10-23T02:38:44.385Z,13.80
2022-10-23T02:41:39.817Z,13.90
2022-10-23T02:44:31.726Z,13.80
2022-10-23T02:47:05.021Z,13.90
2022-10-23T02:50:09.928Z,14.00
2022-10-23T02:53:11.302Z,14.00
2022-10-23T02:56:17.371Z,14.10
2022-10-23T02:58:54.922Z,14.10
2022-10-23T03:01:31.567Z,14.10
2022-10-23T03:04:03.117Z,14.20
2022-10-23T03:06:33.288Z,14.20
2022-10-23T03:09:09.235Z,14.20
2022-10-23T03:11:37.190Z,14.20
2022-10-23T03:14:05.087Z,14.10
2022-10-23T03:16:32.936Z,14.00
2022-10-23T03:19:00.826Z,13.90
2022-10-23T03:21:30.899Z,13.80
2022-10-23T03:23:58.852Z,13.80
2022-10-23T03:26:35.963Z,13.80
2022-10-23T03:29:05.467Z,13.80
2022-10-23T03:31:36.991Z,13.80
2022-10-23T03:34:10.040Z,13.70
2022-10-23T03:36:39.970Z,13.70
2022-10-23T03:39:09.296Z,13.70
2022-10-23T03:41:37.179Z,13.80
2022-10-23T03:46:38.111Z,13.70
2022-10-23T03:49:06.016Z,13.70
2022-10-23T03:51:34.679Z,13.60
2022-10-23T03:54:02.738Z,13.60
2022-10-23T03:56:30.651Z,13.70
2022-10-23T03:58:58.528Z,13.70
2022-10-23T04:01:27.944Z,13.70
2022-10-23T04:03:56.168Z,13.70
2022-10-23T04:06:26.747Z,13.70
2022-10-23T04:08:57.674Z,13.60
2022-10-23T04:11:25.779Z,13.50
2022-10-23T04:13:53.779Z,13.50
2022-10-23T04:16:22.235Z,13.60
2022-10-23T04:18:50.329Z,13.70
2022-10-23T04:21:18.269Z,13.70
2022-10-23T04:23:46.227Z,13.70
2022-10-23T04:26:16.686Z,13.80
2022-10-23T04:28:44.475Z,13.80
2022-10-23T04:31:12.771Z,13.90
2022-10-23T04:33:42.663Z,14.00
2022-10-23T04:36:10.984Z,14.00
2022-10-23T04:38:40.999Z,14.00
2022-10-23T04:41:09.136Z,14.00
2022-10-23T04:43:37.601Z,14.00
2022-10-23T04:46:05.986Z,14.10
2022-10-23T04:48:34.974Z,14.10
2022-10-23T04:51:21.472Z,14.00
2022-10-23T04:54:04.358Z,14.10
2022-10-23T04:56:41.618Z,14.10
2022-10-23T04:59:14.244Z,14.10
2022-10-23T05:01:43.364Z,14.10
2022-10-23T05:04:11.437Z,14.20
2022-10-23T05:06:58.003Z,14.20
2022-10-23T05:09:46.922Z,14.20
2022-10-23T05:12:37.299Z,14.10
2022-10-23T05:15:06.028Z,14.10
2022-10-23T05:17:36.896Z,14.10
2022-10-23T05:20:09.846Z,14.20
2022-10-23T05:22:41.756Z,14.20
2022-10-23T05:25:13.658Z,14.20
2022-10-23T05:27:46.553Z,14.10
2022-10-23T05:30:17.933Z,14.10
2022-10-23T05:32:46.251Z,14.10
2022-10-23T05:35:22.061Z,14.10
2022-10-23T05:37:53.535Z,14.20
2022-10-23T05:40:24.289Z,14.20
2022-10-23T05:42:58.768Z,14.20
2022-10-23T05:45:47.467Z,14.20
2022-10-23T05:48:40.793Z,14.10
2022-10-23T05:51:37.535Z,14.10
2022-10-23T05:54:20.963Z,14.10
2022-10-23T05:57:00.305Z,14.10
2022-10-23T05:59:34.208Z,14.10
2022-10-23T06:02:34.565Z,14.10
2022-10-23T06:05:12.213Z,14.10
2022-10-23T06:07:56.848Z,14.10
2022-10-23T06:10:24.980Z,14.00
2022-10-23T06:12:53.381Z,14.10
2022-10-23T06:15:21.295Z,14.10
2022-10-23T06:18:04.926Z,14.10
2022-10-23T06:20:39.740Z,14.20
2022-10-23T06:23:21.977Z,14.20
2022-10-23T06:26:13.823Z,14.10
2022-10-23T06:28:54.098Z,14.20
2022-10-23T06:31:26.857Z,14.20
2022-10-23T06:33:58.367Z,14.20
2022-10-23T06:36:31.848Z,14.30
2022-10-23T06:39:21.671Z,14.30
2022-10-23T06:42:04.739Z,14.40
2022-10-23T06:45:04.800Z,14.50
2022-10-23T06:47:53.909Z,14.50
2022-10-23T06:50:56.595Z,14.50
2022-10-23T06:53:36.061Z,14.50
2022-10-23T06:56:12.712Z,14.60
2022-10-23T06:58:41.324Z,14.60
2022-10-23T07:01:16.759Z,14.50
2022-10-23T07:03:47.711Z,14.50
2022-10-23T07:06:18.050Z,14.50
2022-10-23T07:08:46.063Z,14.50
2022-10-23T07:11:34.004Z,14.50
2022-10-23T07:14:03.171Z,14.40
2022-10-23T07:16:32.163Z,14.40
2022-10-23T07:19:01.320Z,14.40
2022-10-23T07:21:32.449Z,14.40
2022-10-23T07:24:31.476Z,14.40
2022-10-23T07:27:01.781Z,14.50
2022-10-23T07:29:30.954Z,14.50
2022-10-23T07:32:01.118Z,14.50
2022-10-23T07:34:47.479Z,14.50
2022-10-23T07:37:23.531Z,14.50
2022-10-23T07:39:51.939Z,14.50
2022-10-23T07:42:19.997Z,14.60
2022-10-23T07:44:49.185Z,14.60
2022-10-23T07:47:17.135Z,14.70
2022-10-23T07:49:49.397Z,14.70
2022-10-23T07:52:17.790Z,14.80
2022-10-23T07:55:11.820Z,14.90
2022-10-23T07:57:46.095Z,15.00
2022-10-23T08:00:33.066Z,15.10
2022-10-23T08:03:12.846Z,15.10
2022-10-23T08:05:41.199Z,15.20
2022-10-23T08:08:10.042Z,15.20
2022-10-23T08:10:41.752Z,15.30
2022-10-23T08:13:14.237Z,15.40
2022-10-23T08:15:54.108Z,15.40
2022-10-23T08:18:51.983Z,15.50
2022-10-23T08:21:20.580Z,15.50
2022-10-23T08:23:52.808Z,15.60
2022-10-23T08:26:21.744Z,15.60
2022-10-23T08:28:49.563Z,15.60
2022-10-23T08:31:21.388Z,15.70
2022-10-23T08:34:12.348Z,15.70
2022-10-23T08:36:40.743Z,15.70
2022-10-23T08:39:09.584Z,15.80
2022-10-23T08:41:50.736Z,15.80
2022-10-23T08:44:59.220Z,15.90
2022-10-23T08:47:44.734Z,15.90
2022-10-23T08:50:47.465Z,16.00
2022-10-23T08:53:33.336Z,16.00
2022-10-23T08:56:17.936Z,16.00
2022-10-23T09:01:33.138Z,16.20
2022-10-23T09:04:02.393Z,16.20
2022-10-23T09:06:51.344Z,16.30
2022-10-23T09:09:56.793Z,16.40
2022-10-23T09:12:29.152Z,16.40
2022-10-23T09:15:22.459Z,16.50
2022-10-23T09:17:58.975Z,16.60
2022-10-23T09:20:35.199Z,16.60
2022-10-23T09:23:16.892Z,16.70
2022-10-23T09:25:47.672Z,16.70
2022-10-23T09:28:25.971Z,16.80
2022-10-23T09:30:55.703Z,16.90
2022-10-23T09:33:27.342Z,16.90
2022-10-23T09:36:02.933Z,17.00
2022-10-23T09:38:36.685Z,17.10
2022-10-23T09:41:26.507Z,17.20
2022-10-23T09:44:07.048Z,17.30
2022-10-23T09:46:44.687Z,17.40
2022-10-23T09:49:35.505Z,17.40
2022-10-23T09:52:12.331Z,17.50
2022-10-23T09:54:55.995Z,17.50
2022-10-23T09:57:37.137Z,17.60
2022-10-23T10:00:18.318Z,17.60
2022-10-23T10:02:59.815Z,17.70
2022-10-23T10:05:45.205Z,17.70
2022-10-23T10:08:36.839Z,17.80
2022-10-23T10:11:35.503Z,18.00
2022-10-23T10:14:27.811Z,18.10
2022-10-23T10:17:07.068Z,18.10
2022-10-23T10:20:10.773Z,18.20
2022-10-23T10:23:14.143Z,18.30
2022-10-23T10:29:14.439Z,18.40
2022-10-23T10:32:20.201Z,18.40
2022-10-23T10:35:19.094Z,18.60
2022-10-23T10:38:17.999Z,18.60
2022-10-23T10:41:41.655Z,18.70
2022-10-23T10:44:25.077Z,18.80
2022-10-23T10:47:38.160Z,18.80
2022-10-23T10:50:26.484Z,18.80
2022-10-23T10:53:19.973Z,18.80
2022-10-23T10:55:53.742Z,18.80
2022-10-23T10:58:47.345Z,18.90
2022-10-23T11:01:35.348Z,19.00
2022-10-23T11:04:34.778Z,19.00
2022-10-23T11:07:13.038Z,19.10
2022-10-23T11:09:43.341Z,19.20
2022-10-23T11:12:25.119Z,19.10
2022-10-23T11:14:53.233Z,19.20
2022-10-23T11:17:30.404Z,19.20
2022-10-23T11:20:00.107Z,19.20
2022-10-23T11:23:22.365Z,19.20
2022-10-23T11:26:33.003Z,19.30
2022-10-23T11:29:30.119Z,19.30
2022-10-23T11:32:38.287Z,19.30
2022-10-23T11:35:30.812Z,19.30
2022-10-23T11:38:18.931Z,19.30
2022-10-23T11:43:50.686Z,19.40
2022-10-23T11:46:27.266Z,19.50
2022-10-23T11:48:57.019Z,19.50
2022-10-23T11:51:41.643Z,19.50
2022-10-23T11:54:13.602Z,19.60
2022-10-23T11:57:16.207Z,19.70
2022-10-23T11:59:49.795Z,19.80
2022-10-23T12:02:37.599Z,19.80
2022-10-23T12:05:29.538Z,19.90
2022-10-23T12:08:00.656Z,19.90
2022-10-23T12:10:43.641Z,19.90
2022-10-23T12:13:44.941Z,19.90
2022-10-23T12:16:14.040Z,20.00
2022-10-23T12:18:54.098Z,20.00
2022-10-23T12:21:29.303Z,20.00
2022-10-23T12:24:27.227Z,20.00
2022-10-23T12:27:09.825Z,20.10
2022-10-23T12:30:00.330Z,20.10
2022-10-23T12:32:30.801Z,20.20
2022-10-23T12:35:38.989Z,20.20
2022-10-23T12:38:22.711Z,20.30
2022-10-23T12:41:30.858Z,20.40
2022-10-23T12:44:05.852Z,20.40
2022-10-23T12:46:48.344Z,20.50
2022-10-23T12:49:20.508Z,20.50
2022-10-23T12:52:02.042Z,20.60
2022-10-23T12:54:40.109Z,20.70
2022-10-23T12:57:27.374Z,20.70
2022-10-23T13:00:10.548Z,20.70
2022-10-23T13:02:38.492Z,20.80
2022-10-23T13:05:12.897Z,20.90
2022-10-23T13:07:47.395Z,21.00
2022-10-23T13:10:21.571Z,21.10
2022-10-23T13:13:07.644Z,21.10
2022-10-23T13:15:41.949Z,21.20
2022-10-23T13:18:14.532Z,21.20
2022-10-23T13:20:54.594Z,21.30
2022-10-23T13:23:34.479Z,21.30
2022-10-23T13:26:04.646Z,21.30
2022-10-23T13:28:44.720Z,21.40
2022-10-23T13:31:12.516Z,21.40
2022-10-23T13:33:53.451Z,21.40
2022-10-23T13:36:24.546Z,21.50
2022-10-23T13:39:10.257Z,21.40
2022-10-23T13:41:44.810Z,21.40
2022-10-23T13:44:20.339Z,21.40
2022-10-23T13:46:48.761Z,21.40
2022-10-23T13:49:16.778Z,21.30
2022-10-23T13:51:54.595Z,21.30
2022-10-23T13:57:01.328Z,21.30
2022-10-23T13:59:29.161Z,21.30
2022-10-23T14:01:57.199Z,21.30
2022-10-23T14:04:25.151Z,21.30
2022-10-23T14:06:58.479Z,21.30
2022-10-23T14:09:26.490Z,21.20
2022-10-23T14:11:54.311Z,21.10
2022-10-23T14:14:22.162Z,21.10
2022-10-23T14:16:49.971Z,21.10
2022-10-23T14:19:17.768Z,21.00
2022-10-23T14:21:45.564Z,21.00
2022-10-23T14:24:14.803Z,21.00
2022-10-23T14:26:43.270Z,20.90
2022-10-23T14:29:18.437Z,20.90
2022-10-23T14:31:49.351Z,20.90
2022-10-23T14:34:17.364Z,20.90
2022-10-23T14:36:50.499Z,20.80
2022-10-23T14:39:24.626Z,20.80
2022-10-23T14:41:52.651Z,20.80
2022-10-23T14:44:20.600Z,20.70
2022-10-23T14:46:48.416Z,20.70
2022-10-23T14:49:16.273Z,20.70
2022-10-23T14:51:44.136Z,20.70
2022-10-23T14:54:11.985Z,20.60
2022-10-23T14:56:40.902Z,20.60
2022-10-23T14:59:10.830Z,20.60
2022-10-23T15:01:45.613Z,20.60
2022-10-23T15:04:16.169Z,20.60
2022-10-23T15:06:46.365Z,20.50
2022-10-23T15:09:15.374Z,20.50
2022-10-23T15:11:43.655Z,20.50
2022-10-23T15:14:12.185Z,20.50
2022-10-23T15:16:43.280Z,20.50
2022-10-23T15:19:17.160Z,20.40
2022-10-23T15:21:49.823Z,20.40
2022-10-23T15:24:18.942Z,20.40
2022-10-23T15:26:47.602Z,20.50
2022-10-23T15:29:15.720Z,20.40
2022-10-23T15:31:57.256Z,20.40
2022-10-23T15:34:28.436Z,20.40
2022-10-23T15:36:57.767Z,20.40
2022-10-23T15:39:35.603Z,20.40
2022-10-23T15:42:06.030Z,20.30
2022-10-23T15:44:34.333Z,20.30
2022-10-23T15:47:02.207Z,20.30
2022-10-23T15:49:31.097Z,20.30
2022-10-23T15:51:59.320Z,20.20
2022-10-23T15:54:30.533Z,20.20
2022-10-23T15:57:01.520Z,20.10
2022-10-23T15:59:32.814Z,20.00
2022-10-23T16:02:00.816Z,19.90
2022-10-23T16:04:29.007Z,19.90
2022-10-23T16:06:56.824Z,19.90
2022-10-23T16:09:24.709Z,19.80
2022-10-23T16:11:52.540Z,19.80
2022-10-23T16:14:20.461Z,19.70
2022-10-23T16:16:48.349Z,19.70
2022-10-23T16:19:16.185Z,19.70
2022-10-23T16:21:44.075Z,19.70
2022-10-23T16:24:12.177Z,19.70
2022-10-23T16:26:40.569Z,19.60
2022-10-23T16:29:09.990Z,19.60
2022-10-23T16:31:38.101Z,19.60
2022-10-23T16:34:06.974Z,19.60
2022-10-23T16:36:35.242Z,19.60
2022-10-23T16:39:23.357Z,19.60
2022-10-23T16:42:09.643Z,19.60
2022-10-23T16:44:56.832Z,19.50
2022-10-23T16:47:24.779Z,19.60
2022-10-23T16:49:52.624Z,19.60
2022-10-23T16:52:20.432Z,19.60
2022-10-23T16:54:48.300Z,19.60
2022-10-23T16:57:16.702Z,19.60
2022-10-23T16:59:45.449Z,19.60
2022-10-23T17:02:13.846Z,19.60
2022-10-23T17:04:41.843Z,19.60
2022-10-23T17:07:10.166Z,19.60
2022-10-23T17:09:38.503Z,19.60
2022-10-23T17:12:06.961Z,19.60
2022-10-23T17:14:34.946Z,19.60
2022-10-23T17:17:03.706Z,19.60
2022-10-23T17:19:44.204Z,19.60
2022-10-23T17:22:13.871Z,19.60
2022-10-23T17:24:45.179Z,19.70
2022-10-23T17:27:15.403Z,19.70
2022-10-23T17:29:43.271Z,19.80
2022-10-23T17:32:11.177Z,19.80
2022-10-23T17:34:39.086Z,19.80
2022-10-23T17:37:08.010Z,19.90
2022-10-23T17:39:36.060Z,19.90
2022-10-23T17:42:04.003Z,19.90
2022-10-23T17:44:31.877Z,20.00
2022-10-23T17:46:59.694Z,20.00
2022-10-23T17:49:27.701Z,20.00
2022-10-23T17:51:57.797Z,20.00
2022-10-23T17:54:27.593Z,20.00
2022-10-23T17:56:55.982Z,20.00
2022-10-23T17:59:24.159Z,20.00
2022-10-23T18:01:52.136Z,20.00
2022-10-23T18:04:21.848Z,20.00
2022-10-23T18:06:53.682Z,20.00
2022-10-23T18:09:23.118Z,20.00
2022-10-23T18:11:51.803Z,20.00
2022-10-23T18:14:21.451Z,19.90
2022-10-23T18:16:49.605Z,19.90
2022-10-23T18:19:18.763Z,19.80
2022-10-23T18:21:47.871Z,19.80
2022-10-23T18:24:17.043Z,19.70
2022-10-23T18:26:47.730Z,19.70
2022-10-23T18:29:17.589Z,19.70
2022-10-23T18:31:48.324Z,19.60
2022-10-23T18:34:23.231Z,19.60
2022-10-23T18:36:54.942Z,19.50
2022-10-23T18:39:25.331Z,19.40
2022-10-23T18:41:57.907Z,19.40
2022-10-23T18:44:29.101Z,19.40
2022-10-23T18:46:59.272Z,19.40
2022-10-23T18:49:28.010Z,19.40
2022-10-23T18:51:56.051Z,19.40
2022-10-23T18:54:24.005Z,19.40
2022-10-23T18:56:52.005Z,19.30
2022-10-23T18:59:21.488Z,19.30
2022-10-23T19:01:50.306Z,19.20
2022-10-23T19:04:18.692Z,19.10
2022-10-23T19:06:48.192Z,19.10
2022-10-23T19:09:16.544Z,19.10
2022-10-23T19:11:45.550Z,19.10
2022-10-23T19:14:13.512Z,19.10
2022-10-23T19:16:59.164Z,19.00
2022-10-23T19:19:32.423Z,19.00
2022-10-23T19:22:02.589Z,19.00
2022-10-23T19:24:41.016Z,19.00
2022-10-23T19:27:09.559Z,18.90
2022-10-23T19:29:42.487Z,18.90
2022-10-23T19:32:10.704Z,18.90
2022-10-23T19:34:39.102Z,18.90
2022-10-23T19:37:07.165Z,18.90
2022-10-23T19:39:35.390Z,18.90
2022-10-23T19:42:03.360Z,18.90
2022-10-23T19:44:31.518Z,18.90
2022-10-23T19:46:59.358Z,18.90
2022-10-23T19:49:27.336Z,18.90
2022-10-23T19:51:55.179Z,18.90
2022-10-23T19:54:23.044Z,18.90
2022-10-23T19:56:50.912Z,18.90
2022-10-23T19:59:19.170Z,18.90
2022-10-23T20:01:48.880Z,18.90
2022-10-23T20:04:18.724Z,18.90
2022-10-23T20:06:47.593Z,18.90
2022-10-23T20:09:15.532Z,18.90
2022-10-23T20:11:45.315Z,18.90
2022-10-23T20:14:13.502Z,18.80
2022-10-23T20:16:44.968Z,18.80
2022-10-23T20:21:48.337Z,18.80
2022-10-23T20:24:18.679Z,18.80
2022-10-23T20:26:50.143Z,18.70
2022-10-23T20:29:18.526Z,18.70
2022-10-23T20:31:46.692Z,18.70
2022-10-23T20:34:14.647Z,18.70
2022-10-23T20:36:49.559Z,18.70
2022-10-23T20:39:29.658Z,18.70
2022-10-23T20:41:57.599Z,18.70
2022-10-23T20:44:25.454Z,18.70
2022-10-23T20:46:53.375Z,18.70
2022-10-23T20:49:22.286Z,18.70
2022-10-23T20:51:55.758Z,18.70
2022-10-23T20:54:26.949Z,18.70
2022-10-23T20:56:57.082Z,18.80
2022-10-23T20:59:25.470Z,18.80
2022-10-23T21:01:55.448Z,18.80
2022-10-23T21:04:27.696Z,18.80
2022-10-23T21:07:09.489Z,18.90
2022-10-23T21:09:39.334Z,18.90
2022-10-23T21:12:08.358Z,18.90
2022-10-23T21:14:36.714Z,18.90
2022-10-23T21:17:04.858Z,18.90
2022-10-23T21:19:32.736Z,18.90
2022-10-23T21:22:00.585Z,18.90
2022-10-23T21:24:28.435Z,18.90
2022-10-23T21:26:56.233Z,18.90
2022-10-23T21:29:24.071Z,18.90
2022-10-23T21:31:55.791Z,18.90
2022-10-23T21:34:25.187Z,19.00
2022-10-23T21:37:11.997Z,18.90
2022-10-23T21:39:46.006Z,18.90
2022-10-23T21:42:15.178Z,18.90
2022-10-23T21:44:43.345Z,18.90
2022-10-23T21:47:11.233Z,18.90
2022-10-23T21:49:39.140Z,18.90
2022-10-23T21:52:06.957Z,18.90
2022-10-23T21:54:34.843Z,18.90
2022-10-23T21:57:03.565Z,18.90
2022-10-23T21:59:33.129Z,18.90
2022-10-23T22:02:04.239Z,18.90
2022-10-23T22:04:32.564Z,18.90
2022-10-23T22:07:00.404Z,18.90
2022-10-23T22:09:28.699Z,18.90
2022-10-23T22:11:56.353Z,18.90
2022-10-23T22:14:24.121Z,18.90
2022-10-23T22:16:52.662Z,18.90
2022-10-23T22:19:22.474Z,18.90
2022-10-23T22:21:51.766Z,18.90
2022-10-23T22:24:20.151Z,18.90
2022-10-23T22:26:53.193Z,18.90
2022-10-23T22:29:25.237Z,18.90
2022-10-23T22:31:53.579Z,18.90
2022-10-23T22:37:16.696Z,18.90
2022-10-23T22:39:44.501Z,18.90
2022-10-23T22:42:12.386Z,18.90
2022-10-23T22:44:40.199Z,18.90
2022-10-23T22:47:08.263Z,18.80
2022-10-23T22:49:36.117Z,18.80
2022-10-23T22:52:04.185Z,18.80
2022-10-23T22:54:32.130Z,18.80
2022-10-23T22:57:00.075Z,18.70
2022-10-23T22:59:27.979Z,18.70
2022-10-23T23:01:56.074Z,18.70
2022-10-23T23:04:39.575Z,18.70
2022-10-23T23:07:10.430Z,18.70
2022-10-23T23:09:41.565Z,18.60
2022-10-23T23:12:12.707Z,18.60
2022-10-23T23:14:41.399Z,18.60
2022-10-23T23:17:10.325Z,18.60
2022-10-23T23:19:38.667Z,18.60
2022-10-23T23:22:06.740Z,18.60
2022-10-23T23:24:34.600Z,18.50
2022-10-23T23:27:02.579Z,18.50
2022-10-23T23:29:30.388Z,18.50
2022-10-23T23:31:58.453Z,18.50
2022-10-23T23:34:26.555Z,18.50
2022-10-23T23:36:54.396Z,18.50
2022-10-23T23:39:22.281Z,18.40
2022-10-23T23:41:50.111Z,18.40
2022-10-23T23:44:17.941Z,18.40
2022-10-23T23:46:45.780Z,18.30
2022-10-23T23:49:13.637Z,18.40
2022-10-23T23:51:42.042Z,18.30
2022-10-23T23:54:10.192Z,18.30
2022-10-23T23:56:38.177Z,18.30
2022-10-23T23:59:06.033Z,18.30
